Time;durP1;ratioP1;P1;durP2;ratioP2;P2;SDS_P1;SDS_P2;PMS_P1;PMS_P2;Temp;Humidity;BMP_temperature;BMP_pressure;BME280_temperature;BME280_humidity;BME280_pressure;Samples;Min_cycle;Max_cycle;Signal;HPM_P1;HPM_P2
2022/05/20 00:01:54;;;;;;;8.25;2.75;;;;;;;15.72;43.66;100971.56;1712344;83;22175;-80
2022/05/20 00:04:20;;;;;;;9.38;3.02;;;;;;;15.70;43.77;100965.55;1710612;83;21087;-79
2022/05/20 00:06:46;;;;;;;7.33;2.63;;;;;;;15.68;43.80;100973.87;1712871;83;20913;-79
2022/05/20 00:09:12;;;;;;;6.40;3.60;;;;;;;15.67;43.85;100974.77;1712777;83;21048;-79
2022/05/20 00:11:38;;;;;;;3.80;2.80;;;;;;;15.66;43.90;100976.97;1712867;83;21048;-79
2022/05/20 00:14:05;;;;;;;3.35;2.37;;;;;;;15.64;43.96;100992.26;1711052;83;21533;-80
2022/05/20 00:16:36;;;;;;;3.80;2.25;;;;;;;15.62;44.03;100983.18;1702470;83;21544;-80
2022/05/20 00:19:07;;;;;;;6.10;2.87;;;;;;;15.62;44.07;100988.84;1689850;84;21635;-80
2022/05/20 00:21:37;;;;;;;7.83;2.50;;;;;;;15.59;44.12;100998.09;1680336;84;21415;-80
2022/05/20 00:24:04;;;;;;;6.27;2.53;;;;;;;15.59;44.21;100996.34;1662853;85;21385;-80
2022/05/20 00:26:30;;;;;;;5.17;2.60;;;;;;;15.60;44.23;100994.59;1682504;85;21620;-80
2022/05/20 00:28:56;;;;;;;6.47;2.75;;;;;;;15.63;44.29;100998.37;1682445;84;21509;-79
2022/05/20 00:31:25;;;;;;;9.90;2.90;;;;;;;15.63;44.34;100994.45;1678443;85;21097;-80
2022/05/20 00:33:52;;;;;;;5.42;2.62;;;;;;;15.64;44.38;100986.59;1654738;85;21836;-80
2022/05/20 00:36:18;;;;;;;;;;;;;;;15.63;44.47;100994.02;1657628;85;20966;-80
2022/05/20 00:38:46;;;;;;;3.52;2.60;;;;;;;15.63;44.91;100989.25;1653357;86;20142;-79
2022/05/20 00:41:12;;;;;;;5.30;2.35;;;;;;;15.63;44.61;100985.34;1654214;86;21434;-79
2022/05/20 00:43:44;;;;;;;;;;;;;;;15.62;44.66;100987.54;1655879;85;20900;-79
2022/05/20 00:46:17;;;;;;;3.77;2.62;;;;;;;15.63;45.11;100982.73;1652290;86;20114;-79
2022/05/20 00:48:44;;;;;;;4.65;2.92;;;;;;;15.63;44.76;100978.37;1654859;86;20970;-79
2022/05/20 00:51:28;;;;;;;3.33;2.58;;;;;;;15.64;44.81;100973.56;1654705;86;21450;-79
2022/05/20 00:53:59;;;;;;;9.18;2.60;;;;;;;15.62;44.89;100964.93;1654596;86;20985;-80
2022/05/20 00:56:33;;;;;;;5.92;2.98;;;;;;;15.63;44.95;100968.39;1653303;86;20926;-80
2022/05/20 00:58:59;;;;;;;3.85;2.12;;;;;;;15.63;45.00;100964.48;1653645;86;20993;-79
2022/05/20 01:01:28;;;;;;;3.17;2.60;;;;;;;15.62;45.00;100968.84;1652974;86;20957;-79
2022/05/20 01:03:55;;;;;;;6.12;3.10;;;;;;;15.61;45.04;100968.89;1677238;85;21451;-79
2022/05/20 01:06:22;;;;;;;8.70;2.80;;;;;;;15.59;45.06;100965.06;1682271;85;20945;-79
2022/05/20 01:08:48;;;;;;;6.17;2.25;;;;;;;15.59;45.15;100970.27;1676874;85;20945;-79
2022/05/20 01:11:14;;;;;;;3.98;2.60;;;;;;;15.59;45.21;100967.66;1658421;85;20972;-79
2022/05/20 01:13:41;;;;;;;6.62;2.55;;;;;;;15.58;45.25;100967.27;1655045;86;21490;-80
2022/05/20 01:16:11;;;;;;;5.10;3.12;;;;;;;15.58;45.30;100974.23;1655194;85;21428;-80
2022/05/20 01:18:43;;;;;;;5.40;2.98;;;;;;;15.58;45.32;100971.17;1701221;82;20920;-78
2022/05/20 01:21:09;;;;;;;6.20;3.25;;;;;;;15.58;45.40;100969.88;1702779;84;20912;-79
2022/05/20 01:23:37;;;;;;;6.58;3.45;;;;;;;15.61;45.41;100976.27;1702468;84;20924;-80
2022/05/20 01:26:05;;;;;;;2.50;2.30;;;;;;;15.63;45.45;100975.77;1705826;82;20996;-79
2022/05/20 01:28:32;;;;;;;4.50;2.83;;;;;;;15.65;45.47;100980.93;1700090;84;21059;-79
2022/05/20 01:31:04;;;;;;;7.70;3.10;;;;;;;15.67;45.51;100985.64;1701151;82;20964;-79
2022/05/20 01:33:35;;;;;;;5.78;3.27;;;;;;;15.68;45.55;100981.69;1712793;83;20967;-80
2022/05/20 01:36:06;;;;;;;2.90;2.58;;;;;;;15.70;45.59;100985.55;1713853;83;20942;-79
2022/05/20 01:38:32;;;;;;;11.10;2.42;;;;;;;15.71;45.63;100985.95;1713686;83;20913;-79
2022/05/20 01:41:10;;;;;;;5.15;2.95;;;;;;;15.69;45.68;100985.14;1703581;83;20948;-79
2022/05/20 01:44:09;;;;;;;5.65;2.72;;;;;;;15.65;45.73;100980.93;1711352;83;21374;-80
2022/05/20 01:46:40;;;;;;;9.73;2.62;;;;;;;15.62;45.81;100984.48;1699556;83;21023;-80
2022/05/20 01:49:25;;;;;;;4.90;3.17;;;;;;;15.58;45.83;100985.51;1711551;83;21020;-80
2022/05/20 01:51:59;;;;;;;6.40;3.00;;;;;;;15.59;45.89;100975.48;1697195;83;21052;-79
2022/05/20 01:54:52;;;;;;;12.60;3.12;;;;;;;15.55;45.97;100975.14;1706660;83;21504;-79
2022/05/20 01:57:30;;;;;;;5.53;3.22;;;;;;;15.53;46.00;100973.89;1682834;84;21099;-79
2022/05/20 02:00:04;;;;;;;8.55;3.72;;;;;;;15.52;46.08;100972.63;1700438;83;21100;-79
2022/05/20 02:02:48;;;;;;;9.98;2.90;;;;;;;15.51;46.08;100978.30;1706736;83;20898;-80
2022/05/20 02:05:20;;;;;;;4.35;2.90;;;;;;;15.51;46.15;100974.38;1677490;83;21060;-79
2022/05/20 02:07:50;;;;;;;4.20;3.22;;;;;;;15.51;46.17;100981.34;1682200;83;21492;-79
2022/05/20 02:10:26;;;;;;;4.90;3.37;;;;;;;15.49;46.24;100974.03;1705533;83;21032;-79
2022/05/20 02:12:57;;;;;;;5.78;3.10;;;;;;;15.45;46.29;100983.69;1697469;83;21069;-78
2022/05/20 02:15:34;;;;;;;7.58;3.33;;;;;;;15.42;46.38;100979.87;1692687;83;21061;-79
2022/05/20 02:18:04;;;;;;;6.53;4.10;;;;;;;15.41;46.42;100977.31;1667780;85;20977;-79
2022/05/20 02:20:41;;;;;;;11.40;3.67;;;;;;;15.37;46.45;100977.00;1668999;85;21119;-79
2022/05/20 02:23:12;;;;;;;7.53;3.52;;;;;;;15.35;46.53;100972.28;1668691;85;20992;-78
2022/05/20 02:25:43;;;;;;;4.22;3.27;;;;;;;15.30;46.58;100975.02;1668259;85;21079;-78
2022/05/20 02:28:15;;;;;;;5.97;3.40;;;;;;;15.29;46.66;100978.53;1669885;85;21335;-79
2022/05/20 02:30:44;;;;;;;10.00;4.47;;;;;;;15.26;46.68;100990.34;1669942;85;20866;-80
2022/05/20 02:33:18;;;;;;;8.20;3.50;;;;;;;15.23;46.74;100980.01;1669690;82;21048;-79
2022/05/20 02:35:45;;;;;;;7.65;4.22;;;;;;;15.20;46.77;100982.70;1669230;85;20893;-79
2022/05/20 02:38:16;;;;;;;6.10;3.77;;;;;;;15.19;46.85;100984.91;1668375;85;20914;-79
2022/05/20 02:40:46;;;;;;;7.78;3.35;;;;;;;15.18;46.86;100992.31;1669600;85;20925;-79
2022/05/20 02:43:13;;;;;;;7.42;3.75;;;;;;;15.14;46.91;100988.94;1644098;87;20954;-79
2022/05/20 02:45:42;;;;;;;6.63;3.20;;;;;;;15.09;46.99;100992.13;1698110;84;20891;-79
2022/05/20 02:48:09;;;;;;;4.10;3.52;;;;;;;15.05;47.07;100987.94;1670370;85;20893;-79
2022/05/20 02:50:35;;;;;;;8.78;3.80;;;;;;;15.01;47.17;100991.97;1670217;85;20898;-79
2022/05/20 02:53:01;;;;;;;6.40;3.63;;;;;;;14.97;47.25;100982.54;1666823;85;240751;-79
2022/05/20 02:55:28;;;;;;;8.43;3.77;;;;;;;14.94;47.34;100981.32;1670245;85;20957;-79
2022/05/20 02:57:54;;;;;;;7.20;3.30;;;;;;;14.92;47.39;100982.66;1660459;84;20938;-79
2022/05/20 03:05:51;;;;;;;4.58;2.92;;;;;;;14.98;47.59;100982.49;1643802;85;21327;-80
2022/05/20 03:08:19;;;;;;;;;;;;;;;14.98;47.64;100987.70;1672457;84;20925;-80
2022/05/20 03:10:45;;;;;;;5.00;3.12;;;;;;;15.01;48.03;100988.92;1669976;85;20100;-79
2022/05/20 03:13:13;;;;;;;8.13;3.65;;;;;;;15.03;47.71;100986.27;1670127;85;20958;-79
2022/05/20 03:15:40;;;;;;;4.35;3.47;;;;;;;15.00;47.80;100995.47;1647205;86;21003;-79
2022/05/20 03:18:09;;;;;;;6.85;3.70;;;;;;;15.02;47.86;100993.23;1669721;85;20977;-79
2022/05/20 03:20:37;;;;;;;6.60;3.47;;;;;;;15.05;47.90;100994.45;1669037;85;21071;-78
2022/05/20 03:23:03;;;;;;;6.30;3.15;;;;;;;15.09;47.96;100996.48;1668242;85;21068;-78
2022/05/20 03:25:30;;;;;;;4.08;3.00;;;;;;;15.15;47.98;101002.38;1668368;85;21091;-78
2022/05/20 03:27:56;;;;;;;4.60;3.00;;;;;;;15.21;48.03;101011.31;1668590;85;21079;-79
2022/05/20 03:30:22;;;;;;;4.43;3.30;;;;;;;15.24;48.03;101012.53;1668556;85;21009;-79
2022/05/20 03:32:48;;;;;;;5.15;3.42;;;;;;;15.28;48.11;101016.35;1683645;84;21081;-79
2022/05/20 03:35:14;;;;;;;7.23;3.43;;;;;;;15.31;48.16;101017.12;1702625;84;20968;-78
2022/05/20 03:37:40;;;;;;;5.75;3.65;;;;;;;15.34;48.22;101010.52;1701902;84;20995;-78
2022/05/20 03:40:08;;;;;;;4.93;2.90;;;;;;;15.39;48.26;101019.05;1702584;84;21074;-79
2022/05/20 03:42:35;;;;;;;4.53;3.22;;;;;;;15.44;48.30;101025.44;1698413;84;21318;-79
2022/05/20 03:45:02;;;;;;;6.00;3.42;;;;;;;15.48;48.36;101029.66;1695839;83;21057;-78
2022/05/20 03:47:28;;;;;;;4.92;3.33;;;;;;;15.52;48.42;101029.97;1711308;83;21092;-80
2022/05/20 03:49:55;;;;;;;4.45;3.50;;;;;;;15.58;48.49;101025.06;1711713;83;21104;-80
2022/05/20 03:52:21;;;;;;;4.27;3.20;;;;;;;15.64;48.54;101027.00;1709067;83;21064;-79
2022/05/20 03:54:47;;;;;;;5.00;3.50;;;;;;;15.71;48.63;101031.13;1707564;83;21218;-77
2022/05/20 03:57:13;;;;;;;3.90;3.50;;;;;;;15.81;48.68;101025.19;1714281;83;20929;-78
2022/05/20 03:59:39;;;;;;;4.07;3.50;;;;;;;15.88;48.74;101021.03;1704971;83;20973;-78
2022/05/20 04:02:12;;;;;;;4.47;3.83;;;;;;;15.98;48.79;101029.42;1713005;82;21550;-78
2022/05/20 04:04:43;;;;;;;7.72;3.98;;;;;;;16.08;48.85;101029.98;1710109;82;20922;-78
2022/05/20 04:07:15;;;;;;;3.17;2.90;;;;;;;16.14;48.89;101028.45;1705315;83;20913;-79
2022/05/20 04:09:41;;;;;;;4.50;2.83;;;;;;;16.22;48.97;101031.22;1698688;82;20977;-78
2022/05/20 04:12:13;;;;;;;6.22;2.80;;;;;;;16.30;49.03;101030.97;1700983;82;20961;-78
2022/05/20 04:14:38;;;;;;;8.30;3.22;;;;;;;16.39;49.10;101038.50;1697722;83;21031;-79
2022/05/20 04:17:05;;;;;;;2.70;2.50;;;;;;;16.48;49.18;101039.50;1690634;82;20989;-78
2022/05/20 04:19:33;;;;;;;4.83;3.00;;;;;;;16.59;49.23;101039.59;1709419;83;21049;-78
2022/05/20 04:22:07;;;;;;;6.62;2.98;;;;;;;16.66;49.29;101044.55;1712952;83;20910;-79
2022/05/20 04:24:34;;;;;;;4.17;2.92;;;;;;;16.74;49.33;101043.84;1715831;83;20921;-81
2022/05/20 04:27:00;;;;;;;2.83;2.50;;;;;;;16.82;49.43;101044.42;1702895;83;21500;-80
2022/05/20 04:29:27;;;;;;;3.73;2.73;;;;;;;16.90;49.46;101045.92;1710310;82;20897;-80
2022/05/20 04:31:53;;;;;;;;;;;;;;;16.96;49.51;101052.23;1716940;83;20910;-80
2022/05/20 04:34:20;;;;;;;3.15;2.30;;;;;;;17.00;49.95;101055.99;1713377;83;20150;-81
2022/05/20 04:36:47;;;;;;;4.28;2.25;;;;;;;17.06;49.58;101061.45;1698194;82;20937;-81
2022/05/20 04:39:14;;;;;;;2.58;2.33;;;;;;;17.11;49.64;101061.69;1703103;82;20952;-83
2022/05/20 04:47:22;;;;;;;2.62;2.27;;;;;;;17.32;49.82;101063.95;1715123;83;20941;-77
2022/05/20 04:49:49;;;;;;;2.42;2.22;;;;;;;17.39;49.91;101064.13;1712908;83;20886;-78
2022/05/20 04:52:15;;;;;;;5.87;2.47;;;;;;;17.46;49.96;101068.67;1716561;82;20921;-78
2022/05/20 04:54:55;;;;;;;4.22;2.40;;;;;;;17.52;50.03;101074.98;1707024;82;20919;-77
2022/05/20 04:57:38;;;;;;;5.47;2.50;;;;;;;17.62;50.17;101069.81;1699168;83;20938;-77
2022/05/20 05:00:18;;;;;;;3.30;2.45;;;;;;;17.74;50.24;101076.34;1700295;83;20953;-77
2022/05/20 05:02:45;;;;;;;3.33;2.15;;;;;;;17.93;50.39;101072.11;1709850;82;21414;-78
2022/05/20 05:05:19;;;;;;;5.20;2.42;;;;;;;18.22;50.49;101075.30;1703821;82;20976;-78
2022/05/20 05:07:49;;;;;;;2.58;2.37;;;;;;;18.66;50.71;101072.21;1710361;83;21387;-78
2022/05/20 05:10:20;;;;;;;3.22;2.27;;;;;;;19.31;50.85;101068.44;1715748;83;21418;-79
2022/05/20 05:12:47;;;;;;;7.03;2.00;;;;;;;20.00;50.95;101072.21;1711845;83;20918;-79
2022/05/20 05:15:14;;;;;;;2.92;2.25;;;;;;;20.74;50.91;101077.33;1716103;83;20957;-79
2022/05/20 05:20:30;;;;;;;2.30;1.80;;;;;;;22.10;50.80;101082.23;1694955;83;20996;-78
2022/05/20 05:22:57;;;;;;;3.87;2.12;;;;;;;22.68;50.58;101098.63;1707582;82;21115;-79
2022/05/20 05:25:27;;;;;;;4.47;2.10;;;;;;;23.29;50.39;101098.07;1708189;82;21111;-79
2022/05/20 05:27:54;;;;;;;6.35;1.90;;;;;;;23.81;50.32;101096.15;1707837;83;21023;-78
2022/05/20 05:30:22;;;;;;;3.77;1.90;;;;;;;24.33;50.16;101091.00;1698974;83;21080;-78
2022/05/20 05:32:49;;;;;;;3.90;1.85;;;;;;;24.79;49.93;101098.01;1700900;82;21036;-79
2022/05/20 05:35:25;;;;;;;6.45;1.90;;;;;;;25.27;49.82;101098.25;1680456;83;21462;-78
2022/05/20 05:37:51;;;;;;;2.10;1.90;;;;;;;25.82;49.55;101097.00;1702111;83;20999;-79
2022/05/20 05:40:22;;;;;;;3.77;1.90;;;;;;;26.32;49.39;101103.91;1698951;83;21057;-75
2022/05/20 05:42:51;;;;;;;3.62;1.85;;;;;;;26.79;49.26;101109.61;1706007;83;21099;-73
2022/05/20 05:45:21;;;;;;;2.37;2.02;;;;;;;27.14;48.91;101106.06;1710299;83;21071;-74
2022/05/20 05:47:52;;;;;;;9.73;1.80;;;;;;;27.30;48.63;101111.39;1710866;83;21443;-74
2022/05/20 05:50:20;;;;;;;8.20;2.25;;;;;;;27.58;48.40;101114.02;1713440;83;21367;-74
2022/05/20 05:52:46;;;;;;;3.72;2.20;;;;;;;27.80;47.79;101113.19;1705788;83;20909;-74
2022/05/20 05:55:13;;;;;;;2.72;1.52;;;;;;;27.89;47.89;101110.27;1714793;83;20922;-74
2022/05/20 05:57:40;;;;;;;6.35;1.65;;;;;;;28.16;47.48;101112.47;1707703;83;20874;-75
2022/05/20 06:00:07;;;;;;;4.40;1.87;;;;;;;28.32;47.15;101115.59;1696916;82;20905;-75
2022/05/20 06:02:34;;;;;;;2.85;1.40;;;;;;;28.32;46.98;101115.11;1708270;83;20873;-74
2022/05/20 06:05:00;;;;;;;2.37;1.40;;;;;;;28.27;46.88;101117.30;1708289;83;20898;-74
2022/05/20 06:07:26;;;;;;;2.98;1.55;;;;;;;28.50;46.75;101114.56;1709538;83;20957;-74
2022/05/20 06:09:52;;;;;;;1.60;1.50;;;;;;;28.62;46.62;101126.33;1707194;83;20953;-74
2022/05/20 06:12:18;;;;;;;5.87;1.67;;;;;;;28.86;46.28;101131.92;1703824;83;21375;-75
2022/05/20 06:14:44;;;;;;;1.73;1.63;;;;;;;28.96;46.00;101127.52;1709511;83;21009;-74
2022/05/20 06:17:12;;;;;;;5.25;1.65;;;;;;;28.99;45.60;101129.91;1690855;83;21052;-75
2022/05/20 06:19:39;;;;;;;1.75;1.65;;;;;;;28.93;45.48;101139.75;1711677;83;21548;-74
2022/05/20 06:22:06;;;;;;;4.03;1.92;;;;;;;28.97;45.08;101138.52;1707345;83;21104;-74
2022/05/20 06:24:32;;;;;;;3.00;1.55;;;;;;;28.89;44.62;101141.83;1710514;83;21105;-75
2022/05/20 06:26:58;;;;;;;6.07;1.50;;;;;;;28.85;44.51;101146.20;1707033;83;21359;-75
2022/05/20 06:29:28;;;;;;;5.78;1.85;;;;;;;28.78;44.16;101146.33;1713221;83;22157;-75
2022/05/20 06:31:54;;;;;;;2.05;1.95;;;;;;;28.60;44.20;101144.23;1703503;83;22623;-75
2022/05/20 06:34:20;;;;;;;4.53;1.55;;;;;;;28.60;44.12;101142.91;1707803;83;21004;-75
2022/05/20 06:42:16;;;;;;;3.37;1.55;;;;;;;28.77;43.82;101144.16;1705890;83;20973;-74
2022/05/20 06:44:42;;;;;;;5.65;1.80;;;;;;;28.96;43.63;101151.47;1696294;83;21071;-75
2022/05/20 06:47:08;;;;;;;2.00;1.75;;;;;;;29.02;43.15;101158.95;1705495;83;21506;-75
2022/05/20 06:49:34;;;;;;;;;;;;;;;28.87;42.93;101156.24;1706280;83;21564;-75
2022/05/20 06:52:01;;;;;;;3.12;2.30;;;;;;;28.65;42.84;101161.16;1706148;83;20175;-75
2022/05/20 06:54:27;;;;;;;6.30;2.35;;;;;;;28.33;42.58;101160.69;1698948;83;21048;-75
2022/05/20 06:56:54;;;;;;;3.80;3.55;;;;;;;28.12;42.83;101153.58;1705806;83;21088;-75
2022/05/20 06:59:20;;;;;;;5.72;5.10;;;;;;;28.05;42.73;101155.92;1708009;83;21140;-75
2022/05/20 07:01:46;;;;;;;5.45;2.35;;;;;;;28.01;42.75;101154.48;1703060;83;21036;-76
2022/05/20 07:04:13;;;;;;;4.25;2.37;;;;;;;28.06;42.82;101158.09;1708550;83;21068;-75
2022/05/20 07:06:40;;;;;;;3.58;2.20;;;;;;;28.03;42.65;101161.84;1704551;83;21823;-75
2022/05/20 07:09:06;;;;;;;2.67;2.33;;;;;;;28.04;42.77;101160.03;1702663;83;21107;-74
2022/05/20 07:11:32;;;;;;;3.27;2.45;;;;;;;28.04;42.69;101167.52;1699260;83;21582;-74
2022/05/20 07:13:58;;;;;;;2.33;2.12;;;;;;;28.11;42.72;101166.03;1710928;83;21096;-75
2022/05/20 07:16:29;;;;;;;2.17;2.08;;;;;;;28.26;42.73;101166.15;1699549;83;21064;-75
2022/05/20 07:18:58;;;;;;;4.75;2.05;;;;;;;28.41;42.66;101172.03;1705373;83;20917;-74
2022/05/20 07:21:25;;;;;;;4.65;2.15;;;;;;;28.56;42.54;101169.45;1707948;83;20949;-75
2022/05/20 07:23:51;;;;;;;3.60;1.80;;;;;;;28.54;42.35;101173.20;1711500;83;21451;-74
2022/05/20 07:26:17;;;;;;;2.10;1.90;;;;;;;28.41;42.40;101174.70;1713378;83;20853;-74
2022/05/20 07:28:44;;;;;;;1.77;1.62;;;;;;;28.29;42.26;101182.34;1703169;83;21483;-74
2022/05/20 07:31:10;;;;;;;2.65;2.25;;;;;;;28.28;42.35;101184.16;1706007;83;20905;-75
2022/05/20 07:33:37;;;;;;;2.30;2.05;;;;;;;28.23;42.36;101179.70;1699192;83;20997;-75
2022/05/20 07:36:05;;;;;;;4.03;1.82;;;;;;;28.23;42.22;101182.84;1671670;84;20962;-75
2022/05/20 07:38:31;;;;;;;3.35;1.98;;;;;;;28.09;42.19;101189.73;1697266;84;20893;-74
2022/05/20 07:40:57;;;;;;;2.22;1.92;;;;;;;28.05;42.13;101180.34;1699049;83;20946;-74
2022/05/20 07:43:25;;;;;;;1.85;1.75;;;;;;;27.98;42.14;101180.83;1705184;83;20985;-74
2022/05/20 07:45:52;;;;;;;1.82;1.70;;;;;;;27.76;42.12;101192.80;1685465;84;21068;-74
2022/05/20 07:48:19;;;;;;;3.77;1.98;;;;;;;27.59;42.08;101190.62;1724473;82;21019;-74
2022/05/20 07:50:51;;;;;;;2.10;1.90;;;;;;;27.26;41.89;101190.08;1725704;82;21480;-74
2022/05/20 07:53:19;;;;;;;5.70;2.05;;;;;;;26.95;42.14;101181.80;1728659;82;20881;-74
2022/05/20 07:55:56;;;;;;;2.35;2.02;;;;;;;26.84;42.22;101183.56;1727722;82;21031;-74
2022/05/20 07:58:34;;;;;;;2.92;2.60;;;;;;;26.83;42.31;101177.89;1727167;81;20984;-73
2022/05/20 08:01:03;;;;;;;4.17;2.20;;;;;;;26.94;42.30;101187.22;1719593;82;20984;-75
2022/05/20 08:06:24;;;;;;;5.55;1.90;;;;;;;27.34;42.29;101183.22;1710629;82;21103;-74
2022/05/20 08:08:53;;;;;;;6.05;2.47;;;;;;;27.32;42.02;101177.66;1718347;82;21771;-74
2022/05/20 08:11:19;;;;;;;3.65;1.87;;;;;;;26.95;42.01;101177.81;1692084;83;21052;-75
2022/05/20 08:13:45;;;;;;;4.20;1.90;;;;;;;26.64;42.30;101180.59;1707586;83;20989;-75
2022/05/20 08:16:11;;;;;;;2.37;1.60;;;;;;;26.74;42.46;101175.44;1694220;83;21060;-75
2022/05/20 08:18:38;;;;;;;3.22;1.85;;;;;;;26.89;42.44;101182.25;1724339;82;32822;-75
2022/05/20 08:21:03;;;;;;;2.03;1.80;;;;;;;26.98;42.23;101182.92;1720682;82;21613;-74
2022/05/20 08:23:32;;;;;;;3.50;1.65;;;;;;;26.88;42.25;101183.70;1726628;82;21031;-74
2022/05/20 08:25:58;;;;;;;1.80;1.70;;;;;;;26.69;42.19;101184.23;1718539;82;21552;-74
2022/05/20 08:28:24;;;;;;;1.75;1.65;;;;;;;26.60;42.33;101188.89;1701676;83;20996;-74
2022/05/20 08:30:50;;;;;;;1.90;1.60;;;;;;;26.53;42.40;101186.31;1707261;83;21681;-74
2022/05/20 08:33:16;;;;;;;4.05;1.92;;;;;;;26.64;42.48;101179.26;1710950;82;21552;-74
2022/05/20 08:35:42;;;;;;;1.67;1.57;;;;;;;26.55;42.36;101191.88;1728730;82;20940;-74
2022/05/20 08:38:11;;;;;;;2.08;1.87;;;;;;;26.48;42.45;101180.53;1739264;81;22598;-74
2022/05/20 08:40:46;;;;;;;5.50;2.12;;;;;;;26.60;42.56;101174.30;1740281;81;21505;-74
2022/05/20 08:43:14;;;;;;;2.05;1.82;;;;;;;26.65;42.44;101169.50;1699996;82;21512;-74
2022/05/20 08:45:40;;;;;;;3.65;1.70;;;;;;;26.50;42.37;101187.91;1707615;82;21422;-74
2022/05/20 08:48:11;;;;;;;3.60;1.62;;;;;;;26.40;42.60;101181.09;1707208;83;20976;-74
2022/05/20 08:50:42;;;;;;;2.10;1.52;;;;;;;26.26;42.57;101179.42;1714195;83;21430;-74
2022/05/20 08:53:14;;;;;;;1.87;1.77;;;;;;;25.97;42.56;101186.84;1705608;83;20917;-74
2022/05/20 08:55:44;;;;;;;2.00;1.80;;;;;;;25.83;42.80;101188.30;1691670;83;20897;-74
2022/05/20 08:58:15;;;;;;;1.60;1.50;;;;;;;25.76;42.83;101187.52;1701492;82;21406;-74
2022/05/20 09:00:41;;;;;;;3.00;2.00;;;;;;;25.72;42.91;101190.86;1709837;83;21599;-74
2022/05/20 09:03:08;;;;;;;2.73;1.63;;;;;;;25.75;42.85;101185.81;1710563;82;20921;-74
2022/05/20 09:05:38;;;;;;;1.85;1.60;;;;;;;25.66;42.82;101185.98;1709765;83;21135;-75
2022/05/20 09:08:28;;;;;;;1.60;1.50;;;;;;;25.57;43.03;101186.11;1712528;83;21618;-75
2022/05/20 09:11:01;;;;;;;2.05;1.72;;;;;;;25.64;43.11;101179.47;1715220;83;21782;-74
2022/05/20 09:16:24;;;;;;;1.98;1.87;;;;;;;25.62;43.14;101177.84;1709771;83;20888;-75
2022/05/20 09:19:09;;;;;;;3.08;1.60;;;;;;;25.56;43.05;101171.66;1708957;83;21383;-74
2022/05/20 09:21:44;;;;;;;1.75;1.40;;;;;;;25.49;43.08;101175.20;1706978;83;21524;-74
2022/05/20 09:24:21;;;;;;;2.92;1.62;;;;;;;25.41;43.21;101170.95;1710196;83;21477;-79
2022/05/20 09:27:10;;;;;;;1.90;1.80;;;;;;;25.45;43.27;101175.08;1706221;83;21032;-75
2022/05/20 09:29:48;;;;;;;1.92;1.65;;;;;;;25.47;43.25;101169.20;1707662;83;21520;-74
2022/05/20 09:32:31;;;;;;;2.20;1.77;;;;;;;25.59;43.38;101172.77;1707936;83;21041;-74
2022/05/20 09:35:08;;;;;;;6.83;1.65;;;;;;;25.76;43.40;101172.94;1702074;83;22105;-75
2022/05/20 09:37:35;;;;;;;1.80;1.70;;;;;;;25.84;43.36;101175.90;1702137;83;21488;-75
2022/05/20 09:40:26;;;;;;;5.40;1.70;;;;;;;25.80;43.26;101169.97;1714881;83;21068;-75
2022/05/20 09:43:00;;;;;;;1.90;1.80;;;;;;;25.81;43.34;101176.11;1701330;83;21460;-75
2022/05/20 09:45:38;;;;;;;3.95;1.87;;;;;;;25.78;43.36;101171.88;1701577;82;21536;-75
2022/05/20 09:48:05;;;;;;;1.95;1.72;;;;;;;25.67;43.34;101169.98;1706635;83;20906;-75
2022/05/20 09:50:38;;;;;;;;;;;;;;;25.52;43.31;101174.14;1701798;83;20941;-75
2022/05/20 09:53:17;;;;;;;1.57;1.47;;;;;;;25.32;43.47;101164.96;1687224;83;20087;-75
2022/05/20 09:55:46;;;;;;;2.05;1.85;;;;;;;25.32;43.47;101164.96;1696979;83;20953;-75
2022/05/20 09:58:30;;;;;;;3.55;1.90;;;;;;;25.36;43.54;101167.77;1702678;83;20921;-75
2022/05/20 10:01:10;;;;;;;4.17;2.30;;;;;;;25.31;43.68;101157.49;1711365;83;21342;-74
2022/05/20 10:03:47;;;;;;;3.83;2.15;;;;;;;25.31;43.68;101157.49;1706945;83;21096;-75
2022/05/20 10:06:27;;;;;;;1.87;1.77;;;;;;;25.41;43.61;101156.38;1706092;83;21346;-75
2022/05/20 10:09:34;;;;;;;2.25;1.85;;;;;;;25.53;43.59;101140.94;1706452;83;20925;-75
2022/05/20 10:12:15;;;;;;;3.83;1.80;;;;;;;25.63;43.56;101145.95;1703998;83;21426;-75
2022/05/20 10:15:20;;;;;;;2.70;1.77;;;;;;;25.63;43.51;101140.66;1697502;83;21493;-75
2022/05/20 10:18:15;;;;;;;2.20;1.70;;;;;;;25.44;43.53;101130.17;1713299;83;20933;-75
2022/05/20 10:21:27;;;;;;;1.95;1.85;;;;;;;25.44;43.53;101130.17;1702286;83;20903;-75
2022/05/20 10:24:20;;;;;;;10.32;2.12;;;;;;;25.29;43.37;101124.14;1706843;83;20945;-74
2022/05/20 10:26:51;;;;;;;2.58;1.90;;;;;;;25.29;43.37;101124.14;1677520;83;20862;-74
2022/05/20 10:32:42;;;;;;;1.90;1.80;;;;;;;25.26;43.36;101112.44;1708888;82;20956;-73
2022/05/20 10:35:13;;;;;;;2.83;1.60;;;;;;;25.18;43.23;101096.23;1703533;83;20927;-74
2022/05/20 10:37:58;;;;;;;2.10;1.72;;;;;;;25.36;43.24;101109.05;1702682;83;20961;-73
2022/05/20 10:41:07;;;;;;;1.80;1.70;;;;;;;25.50;43.18;101112.49;1704609;83;21370;-74
2022/05/20 10:50:24;;;;;;;2.47;2.17;;;;;;;25.44;42.89;101107.19;1693543;83;20937;-73
2022/05/20 10:53:11;;;;;;;2.80;2.52;;;;;;;25.29;43.12;101109.10;1695566;83;20969;-73
2022/05/20 10:56:02;;;;;;;2.47;2.27;;;;;;;25.13;43.22;101107.62;1690651;83;21384;-73
2022/05/20 10:58:43;;;;;;;4.00;1.92;;;;;;;25.13;43.22;101107.62;1670572;83;20965;-73
2022/05/20 11:01:15;;;;;;;2.27;1.92;;;;;;;25.14;43.31;101111.48;1709918;83;20921;-73
2022/05/20 11:04:16;;;;;;;2.25;2.05;;;;;;;25.08;43.27;101084.12;1698785;83;20961;-73
2022/05/20 11:07:05;;;;;;;6.92;2.20;;;;;;;25.28;43.23;101097.30;1698212;83;20930;-73
2022/05/20 11:09:49;;;;;;;4.08;2.27;;;;;;;25.28;43.23;101097.30;1696803;83;21311;-73
2022/05/20 11:12:35;;;;;;;2.27;2.08;;;;;;;25.18;43.18;101079.88;1675896;83;21257;-74
2022/05/20 11:15:19;;;;;;;1.72;1.60;;;;;;;25.24;43.29;101096.66;1707521;83;20953;-75
2022/05/20 11:18:16;;;;;;;3.95;2.35;;;;;;;25.34;43.36;101100.84;1688866;83;20961;-74
2022/05/20 11:21:03;;;;;;;2.12;2.02;;;;;;;25.51;43.21;101094.33;1706910;83;20873;-74
2022/05/20 11:23:57;;;;;;;1.82;1.72;;;;;;;25.59;43.10;101088.02;1716600;82;20921;-74
2022/05/20 11:26:50;;;;;;;2.10;2.00;;;;;;;25.67;43.12;101078.59;1701304;83;20890;-75
2022/05/20 11:30:05;;;;;;;3.90;2.00;;;;;;;25.76;43.03;101082.39;1689050;83;20901;-74
2022/05/20 11:33:13;;;;;;;1.90;1.80;;;;;;;25.76;42.97;101071.79;1707791;83;20885;-74
2022/05/20 11:36:15;;;;;;;2.15;2.05;;;;;;;25.68;42.96;101074.14;1704261;83;20874;-73
2022/05/20 11:39:10;;;;;;;3.15;1.80;;;;;;;25.52;42.89;101064.23;1703064;83;20985;-74
2022/05/20 11:42:11;;;;;;;3.58;1.90;;;;;;;25.39;42.93;101061.65;1713460;83;21442;-73
2022/05/20 11:45:09;;;;;;;3.40;1.67;;;;;;;25.37;42.93;101060.44;1675362;83;20889;-73
2022/05/20 11:48:04;;;;;;;2.47;1.70;;;;;;;25.40;42.91;101052.75;1708177;83;21404;-73
2022/05/20 11:50:50;;;;;;;2.30;2.10;;;;;;;25.52;42.89;101043.91;1705468;83;21367;-73
2022/05/20 11:53:38;;;;;;;1.70;1.60;;;;;;;25.64;42.44;101011.27;1695464;83;20921;-73
2022/05/20 11:56:12;;;;;;;1.98;1.77;;;;;;;25.64;42.44;101011.27;1695457;83;20972;-73
2022/05/20 11:58:55;;;;;;;2.80;1.37;;;;;;;25.78;42.38;101042.06;1705422;82;21901;-73
2022/05/20 12:01:22;;;;;;;3.55;1.67;;;;;;;25.79;42.21;101018.58;1719256;82;20897;-73
2022/05/20 12:04:07;;;;;;;2.15;1.95;;;;;;;25.83;42.08;101033.30;1707324;81;20904;-73
2022/05/20 12:06:53;;;;;;;2.80;1.92;;;;;;;25.83;42.08;101033.30;1709888;82;20917;-73
2022/05/20 12:09:39;;;;;;;1.95;1.85;;;;;;;25.73;41.98;101009.28;1703466;83;20957;-73
2022/05/20 12:12:28;;;;;;;2.15;2.05;;;;;;;25.83;41.95;101009.45;1706229;83;20925;-73
2022/05/20 12:15:15;;;;;;;4.10;1.87;;;;;;;26.08;41.89;101023.51;1714893;83;20913;-73
2022/05/20 12:17:48;;;;;;;1.98;1.87;;;;;;;26.30;41.88;101025.77;1706328;83;20909;-73
2022/05/20 12:26:03;;;;;;;2.02;1.92;;;;;;;26.68;41.44;101014.06;1704723;83;20941;-73
2022/05/20 12:28:34;;;;;;;3.47;2.15;;;;;;;26.73;41.47;101014.55;1702491;83;20887;-73
2022/05/20 12:31:18;;;;;;;4.67;2.20;;;;;;;26.87;41.30;101009.50;1704666;83;20921;-73
2022/05/20 12:34:09;;;;;;;3.85;2.05;;;;;;;27.06;41.39;101012.89;1713210;83;21480;-73